Time;durP1;ratioP1;P1;durP2;ratioP2;P2;SDS_P1;SDS_P2;PMS_P1;PMS_P2;Temp;Humidity;BMP_temperature;BMP_pressure;BME280_temperature;BME280_humidity;BME280_pressure;Samples;Min_cycle;Max_cycle;Signal;HPM_P1;HPM_P2
2023/10/27 00:01:34;;;;;;;;;;;19.20;74.80;;;;;;5039292;27;89664;-46
2023/10/27 00:04:00;;;;;;;;;;;19.20;74.90;;;;;;5041005;27;90091;-47
2023/10/27 00:06:27;;;;;;;;;;;19.20;74.90;;;;;;5036856;27;89227;-46
2023/10/27 00:08:53;;;;;;;;;;;19.10;75.00;;;;;;5040607;27;89308;-53
2023/10/27 00:11:18;;;;;;;;;;;19.10;75.00;;;;;;5043247;27;90024;-47
2023/10/27 00:13:44;;;;;;;;;;;19.20;74.90;;;;;;5036407;27;89214;-47
2023/10/27 00:16:10;;;;;;;;;;;19.10;74.90;;;;;;5041528;27;90825;-47
2023/10/27 00:18:36;;;;;;;;;;;19.20;74.90;;;;;;5038300;27;89844;-46
2023/10/27 00:21:01;;;;;;;;;;;19.10;74.80;;;;;;5035155;27;89372;-46
2023/10/27 00:23:27;;;;;;;;;;;19.10;74.90;;;;;;5039646;27;89150;-47
2023/10/27 00:25:52;;;;;;;;;;;19.10;74.80;;;;;;5038115;27;88824;-46
2023/10/27 00:28:18;;;;;;;;;;;19.10;74.80;;;;;;5040872;27;89157;-46
2023/10/27 00:30:43;;;;;;;;;;;19.10;75.00;;;;;;5041111;27;90086;-46
2023/10/27 00:33:09;;;;;;;;;;;19.10;74.90;;;;;;5021776;27;90876;-47
2023/10/27 00:35:35;;;;;;;;;;;19.10;75.00;;;;;;5041199;27;92018;-46
2023/10/27 00:38:00;;;;;;;;;;;19.00;75.00;;;;;;5033604;27;91333;-47
2023/10/27 00:40:26;;;;;;;;;;;19.10;75.20;;;;;;5042313;27;90170;-47
2023/10/27 00:42:51;;;;;;;;;;;19.00;75.00;;;;;;5040918;27;89639;-46
2023/10/27 00:45:17;;;;;;;;;;;19.00;75.00;;;;;;5044129;27;89784;-48
2023/10/27 00:47:42;;;;;;;;;;;19.00;75.00;;;;;;5041224;27;88709;-46
2023/10/27 00:50:08;;;;;;;;;;;19.00;75.10;;;;;;5041796;27;90537;-46
2023/10/27 00:52:34;;;;;;;;;;;19.00;75.00;;;;;;5035936;27;89062;-47
2023/10/27 00:55:00;;;;;;;;;;;19.00;75.10;;;;;;5037824;27;89332;-47
2023/10/27 00:57:26;;;;;;;;;;;19.00;75.20;;;;;;5041843;27;88680;-47
2023/10/27 00:59:52;;;;;;;;;;;19.00;75.20;;;;;;5041593;27;89088;-47
2023/10/27 01:02:18;;;;;;;;;;;19.00;75.20;;;;;;5040106;27;89425;-47
2023/10/27 01:04:44;;;;;;;;;;;19.00;75.20;;;;;;5038232;27;91549;-47
2023/10/27 01:07:10;;;;;;;;;;;18.90;75.10;;;;;;5039049;27;89578;-46
2023/10/27 01:09:35;;;;;;;;;;;18.90;75.20;;;;;;5040554;27;90248;-45
2023/10/27 01:12:01;;;;;;;;;;;18.90;75.30;;;;;;5034813;27;90255;-44
2023/10/27 01:14:27;;;;;;;;;;;18.90;75.30;;;;;;5039547;27;90273;-45
2023/10/27 01:16:52;;;;;;;;;;;18.90;75.10;;;;;;5037617;27;89109;-44
2023/10/27 01:19:18;;;;;;;;;;;18.90;75.10;;;;;;5040513;27;89633;-44
2023/10/27 01:21:44;;;;;;;;;;;18.90;75.30;;;;;;5038438;27;88625;-45
2023/10/27 01:24:09;;;;;;;;;;;18.90;75.30;;;;;;5043424;27;89200;-46
2023/10/27 01:26:35;;;;;;;;;;;18.80;75.20;;;;;;5041396;27;89450;-44
2023/10/27 01:29:00;;;;;;;;;;;18.80;75.30;;;;;;5035402;27;90673;-44
2023/10/27 01:31:26;;;;;;;;;;;18.80;75.30;;;;;;5037982;27;90892;-45
2023/10/27 01:33:51;;;;;;;;;;;18.80;75.30;;;;;;5038810;27;89585;-45
2023/10/27 01:36:17;;;;;;;;;;;18.80;75.20;;;;;;5042843;27;91459;-44
2023/10/27 01:38:42;;;;;;;;;;;18.80;75.90;;;;;;5038343;27;89836;-45
2023/10/27 01:41:08;;;;;;;;;;;18.80;75.30;;;;;;5040838;27;89819;-44
2023/10/27 01:43:33;;;;;;;;;;;18.80;75.30;;;;;;5044654;27;89759;-45
2023/10/27 01:45:59;;;;;;;;;;;18.80;75.50;;;;;;5040945;27;87934;-44
2023/10/27 01:48:24;;;;;;;;;;;18.80;75.50;;;;;;5037893;27;89844;-45
2023/10/27 01:50:50;;;;;;;;;;;18.70;75.30;;;;;;5040805;27;89292;-44
2023/10/27 01:53:16;;;;;;;;;;;18.70;75.30;;;;;;5042028;27;90829;-44
2023/10/27 01:55:41;;;;;;;;;;;18.70;75.30;;;;;;5040939;27;89545;-44
2023/10/27 01:58:07;;;;;;;;;;;18.70;75.40;;;;;;5042014;27;89504;-45
2023/10/27 02:00:32;;;;;;;;;;;18.70;75.30;;;;;;5043412;27;90167;-46
2023/10/27 02:02:58;;;;;;;;;;;18.70;75.50;;;;;;5041102;27;89386;-45
2023/10/27 02:05:23;;;;;;;;;;;18.70;75.60;;;;;;5042954;27;89179;-45
2023/10/27 02:07:49;;;;;;;;;;;18.70;75.60;;;;;;5038734;27;90179;-44
2023/10/27 02:10:14;;;;;;;;;;;18.70;75.60;;;;;;5025449;27;90002;-44
2023/10/27 02:12:40;;;;;;;;;;;18.70;75.60;;;;;;5042667;27;89372;-45
2023/10/27 02:15:06;;;;;;;;;;;18.70;75.50;;;;;;5041127;27;90631;-44
2023/10/27 02:17:32;;;;;;;;;;;18.60;75.30;;;;;;5042091;27;91071;-44
2023/10/27 02:19:58;;;;;;;;;;;18.60;75.60;;;;;;5038421;27;90707;-45
2023/10/27 02:22:23;;;;;;;;;;;18.60;75.70;;;;;;5040881;27;89876;-44
2023/10/27 02:24:50;;;;;;;;;;;18.60;75.60;;;;;;5043654;27;89486;-44
2023/10/27 02:27:15;;;;;;;;;;;18.60;75.60;;;;;;5040708;27;89494;-44
2023/10/27 02:29:41;;;;;;;;;;;18.60;76.30;;;;;;5047134;27;89521;-45
2023/10/27 02:32:06;;;;;;;;;;;18.60;75.70;;;;;;5043952;27;89572;-44
2023/10/27 02:34:32;;;;;;;;;;;18.60;75.70;;;;;;5042655;27;90072;-44
2023/10/27 02:36:57;;;;;;;;;;;18.60;75.70;;;;;;5042464;27;89419;-44
2023/10/27 02:39:23;;;;;;;;;;;18.60;75.70;;;;;;5041919;27;90889;-44
2023/10/27 02:41:48;;;;;;;;;;;18.60;75.80;;;;;;5044324;27;89881;-45
2023/10/27 02:44:14;;;;;;;;;;;18.50;75.70;;;;;;5043813;27;89606;-45
2023/10/27 02:46:40;;;;;;;;;;;18.50;75.80;;;;;;5037083;27;89267;-46
2023/10/27 02:49:05;;;;;;;;;;;18.50;75.90;;;;;;5040553;27;89471;-45
2023/10/27 02:51:31;;;;;;;;;;;18.50;75.80;;;;;;5043776;27;90105;-45
2023/10/27 02:53:57;;;;;;;;;;;18.50;75.80;;;;;;5039889;27;89609;-44
2023/10/27 02:56:23;;;;;;;;;;;18.50;75.80;;;;;;5037380;27;90520;-46
2023/10/27 02:58:48;;;;;;;;;;;18.40;76.00;;;;;;5043134;27;89110;-45
2023/10/27 03:01:14;;;;;;;;;;;18.50;75.90;;;;;;5042338;27;89438;-46
2023/10/27 03:03:43;;;;;;;;;;;18.50;75.90;;;;;;5039278;27;89508;-46
2023/10/27 03:06:10;;;;;;;;;;;18.40;75.90;;;;;;5041496;27;90970;-45
2023/10/27 03:08:37;;;;;;;;;;;18.40;75.90;;;;;;5040668;27;89977;-45
2023/10/27 03:11:02;;;;;;;;;;;18.40;76.00;;;;;;5042152;27;90591;-45
2023/10/27 03:13:28;;;;;;;;;;;18.40;76.10;;;;;;5042106;27;90903;-45
2023/10/27 03:15:53;;;;;;;;;;;18.40;76.10;;;;;;5037851;27;89939;-45
2023/10/27 03:18:19;;;;;;;;;;;18.40;76.00;;;;;;5038624;27;89471;-45
2023/10/27 03:20:45;;;;;;;;;;;18.40;76.20;;;;;;5042802;27;89129;-45
2023/10/27 03:23:10;;;;;;;;;;;18.40;76.10;;;;;;5037176;27;88898;-45
2023/10/27 03:25:36;;;;;;;;;;;18.40;76.20;;;;;;5036889;27;89844;-45
2023/10/27 03:28:01;;;;;;;;;;;18.30;76.10;;;;;;5038126;27;89587;-45
2023/10/27 03:30:27;;;;;;;;;;;18.30;76.00;;;;;;5038442;27;90361;-45
2023/10/27 03:32:53;;;;;;;;;;;18.30;76.10;;;;;;5043675;27;89393;-45
2023/10/27 03:35:19;;;;;;;;;;;18.30;76.10;;;;;;5036343;27;94730;-46
2023/10/27 03:37:44;;;;;;;;;;;18.30;76.10;;;;;;5043816;27;89989;-45
2023/10/27 03:40:10;;;;;;;;;;;18.30;76.30;;;;;;5045589;27;89536;-46
2023/10/27 03:42:36;;;;;;;;;;;18.30;76.30;;;;;;5042616;27;89642;-46
2023/10/27 03:45:01;;;;;;;;;;;18.30;76.30;;;;;;5044799;27;89587;-46
2023/10/27 03:47:27;;;;;;;;;;;18.30;76.20;;;;;;5051802;27;88841;-46
2023/10/27 03:49:52;;;;;;;;;;;18.30;76.30;;;;;;5047770;27;89395;-46
2023/10/27 03:52:18;;;;;;;;;;;18.30;76.30;;;;;;5042674;27;89475;-44
2023/10/27 03:54:43;;;;;;;;;;;18.20;76.20;;;;;;5038092;27;91584;-45
2023/10/27 03:57:09;;;;;;;;;;;18.20;76.40;;;;;;5045479;27;89549;-45
2023/10/27 03:59:34;;;;;;;;;;;18.20;76.30;;;;;;5044431;27;88917;-44
2023/10/27 04:02:00;;;;;;;;;;;18.20;76.30;;;;;;5038543;27;89977;-45
2023/10/27 04:04:25;;;;;;;;;;;18.20;76.30;;;;;;5044336;27;89247;-45
2023/10/27 04:06:51;;;;;;;;;;;18.20;76.40;;;;;;5036578;27;89445;-45
2023/10/27 04:09:16;;;;;;;;;;;18.20;76.40;;;;;;5040425;27;89601;-46
2023/10/27 04:11:43;;;;;;;;;;;18.20;76.30;;;;;;5039975;27;88471;-45
2023/10/27 04:14:08;;;;;;;;;;;18.20;76.40;;;;;;5034705;27;89386;-46
2023/10/27 04:16:34;;;;;;;;;;;18.20;76.30;;;;;;5039987;27;88750;-46
2023/10/27 04:19:00;;;;;;;;;;;18.10;76.40;;;;;;5038899;27;91455;-44
2023/10/27 04:21:25;;;;;;;;;;;18.10;76.50;;;;;;5038741;27;89662;-45
2023/10/27 04:23:51;;;;;;;;;;;18.10;76.50;;;;;;5041157;27;89552;-44
2023/10/27 04:26:16;;;;;;;;;;;18.10;76.50;;;;;;5043996;27;89388;-44
2023/10/27 04:28:42;;;;;;;;;;;18.10;76.70;;;;;;5043569;27;91392;-45
2023/10/27 04:31:08;;;;;;;;;;;18.10;76.70;;;;;;5042169;27;89662;-45
2023/10/27 04:33:36;;;;;;;;;;;18.10;76.60;;;;;;5038571;27;91062;-45
2023/10/27 04:36:02;;;;;;;;;;;18.10;76.70;;;;;;5049660;27;88787;-45
2023/10/27 04:38:27;;;;;;;;;;;18.10;76.80;;;;;;5043720;27;89353;-45
2023/10/27 04:40:53;;;;;;;;;;;18.10;76.90;;;;;;5043810;27;89495;-47
2023/10/27 04:43:21;;;;;;;;;;;18.10;77.00;;;;;;5048632;27;89977;-47
2023/10/27 04:45:46;;;;;;;;;;;18.00;77.10;;;;;;5038437;27;90152;-47
2023/10/27 04:48:12;;;;;;;;;;;18.00;77.20;;;;;;5037585;27;88938;-47
2023/10/27 04:50:37;;;;;;;;;;;18.00;77.40;;;;;;5039268;27;89290;-47
2023/10/27 04:53:03;;;;;;;;;;;18.00;77.60;;;;;;5038989;27;88795;-47
2023/10/27 04:55:29;;;;;;;;;;;18.00;77.70;;;;;;5043222;27;91367;-46
2023/10/27 04:57:54;;;;;;;;;;;18.00;77.70;;;;;;5042848;27;89032;-47
2023/10/27 05:00:20;;;;;;;;;;;18.00;77.70;;;;;;5046211;27;89740;-46
2023/10/27 05:02:45;;;;;;;;;;;18.00;77.60;;;;;;5029839;27;89641;-47
2023/10/27 05:05:11;;;;;;;;;;;18.00;77.80;;;;;;5043755;27;89447;-47
2023/10/27 05:07:37;;;;;;;;;;;18.00;77.80;;;;;;5036706;27;90578;-46
2023/10/27 05:10:02;;;;;;;;;;;18.00;77.80;;;;;;5049387;27;89888;-47
2023/10/27 05:12:28;;;;;;;;;;;18.00;77.80;;;;;;5040728;27;90159;-47
2023/10/27 05:14:54;;;;;;;;;;;17.90;77.80;;;;;;5039688;27;89237;-47
2023/10/27 05:17:20;;;;;;;;;;;18.00;77.90;;;;;;5040232;27;89920;-47
2023/10/27 05:19:45;;;;;;;;;;;17.90;77.80;;;;;;5024218;27;90672;-47
2023/10/27 05:22:12;;;;;;;;;;;17.90;77.80;;;;;;5035426;27;89181;-47
2023/10/27 05:24:38;;;;;;;;;;;17.90;77.80;;;;;;5038959;27;88765;-47
2023/10/27 05:27:03;;;;;;;;;;;17.90;77.80;;;;;;5048752;27;89811;-47
2023/10/27 05:29:29;;;;;;;;;;;17.90;77.80;;;;;;5042962;27;89327;-47
2023/10/27 05:31:54;;;;;;;;;;;17.90;77.80;;;;;;5039356;27;91874;-46
2023/10/27 05:34:20;;;;;;;;;;;17.90;77.80;;;;;;5044849;27;90221;-47
2023/10/27 05:36:45;;;;;;;;;;;17.90;77.70;;;;;;5043460;27;89404;-46
2023/10/27 05:39:16;;;;;;;;;;;17.90;77.70;;;;;;5043027;27;89692;-46
2023/10/27 05:41:45;;;;;;;;;;;17.90;77.80;;;;;;5040641;27;91622;-47
2023/10/27 05:44:11;;;;;;;;;;;17.90;77.60;;;;;;5037711;27;90009;-47
2023/10/27 05:46:36;;;;;;;;;;;17.90;77.80;;;;;;5042417;27;90275;-47
2023/10/27 05:49:04;;;;;;;;;;;17.90;77.80;;;;;;5043746;27;89954;-47
2023/10/27 05:51:30;;;;;;;;;;;17.90;77.80;;;;;;5037821;27;89233;-46
2023/10/27 05:53:55;;;;;;;;;;;17.90;77.80;;;;;;5040797;27;90148;-47
2023/10/27 05:56:21;;;;;;;;;;;17.90;77.80;;;;;;5044965;27;91340;-47
2023/10/27 05:58:47;;;;;;;;;;;17.90;77.80;;;;;;5036523;27;89535;-46
2023/10/27 06:01:12;;;;;;;;;;;17.90;77.70;;;;;;5038844;27;89486;-47
2023/10/27 06:03:38;;;;;;;;;;;17.90;77.80;;;;;;5042960;27;89518;-47
2023/10/27 06:06:04;;;;;;;;;;;17.90;77.80;;;;;;5036483;27;89005;-46
2023/10/27 06:08:29;;;;;;;;;;;17.90;77.80;;;;;;5036831;27;88972;-46
2023/10/27 06:10:55;;;;;;;;;;;17.90;77.80;;;;;;5040158;27;89380;-47
2023/10/27 06:13:20;;;;;;;;;;;17.90;77.80;;;;;;5043450;27;88479;-47
2023/10/27 06:15:46;;;;;;;;;;;17.80;77.80;;;;;;5034482;27;90465;-45
2023/10/27 06:18:11;;;;;;;;;;;17.90;78.00;;;;;;5041874;27;88924;-47
2023/10/27 06:20:37;;;;;;;;;;;17.80;78.00;;;;;;5035511;27;92378;-47
2023/10/27 06:23:02;;;;;;;;;;;17.80;77.90;;;;;;5029166;27;89595;-47
2023/10/27 06:25:28;;;;;;;;;;;17.80;77.80;;;;;;5027820;27;89950;-47
2023/10/27 06:27:54;;;;;;;;;;;17.80;77.90;;;;;;5032823;27;90690;-47
2023/10/27 06:30:20;;;;;;;;;;;17.80;78.00;;;;;;5031480;27;89549;-46
2023/10/27 06:32:48;;;;;;;;;;;17.80;77.90;;;;;;5026288;27;89588;-46
2023/10/27 06:35:14;;;;;;;;;;;17.80;78.00;;;;;;5036629;27;90656;-47
2023/10/27 06:37:40;;;;;;;;;;;17.80;78.00;;;;;;5032849;27;90376;-46
2023/10/27 06:40:05;;;;;;;;;;;17.80;78.00;;;;;;5029912;27;89798;-47
2023/10/27 06:42:31;;;;;;;;;;;17.80;78.10;;;;;;5034574;27;89302;-39
2023/10/27 06:44:57;;;;;;;;;;;17.90;78.20;;;;;;5037875;27;91506;-39
2023/10/27 06:47:22;;;;;;;;;;;17.90;78.30;;;;;;5017615;27;89523;-39
2023/10/27 06:49:48;;;;;;;;;;;17.90;78.50;;;;;;5035133;27;90345;-39
2023/10/27 06:52:13;;;;;;;;;;;17.90;78.80;;;;;;5037836;27;89229;-38
2023/10/27 06:54:40;;;;;;;;;;;17.90;78.90;;;;;;5043149;27;89834;-39
2023/10/27 06:57:06;;;;;;;;;;;18.00;79.00;;;;;;5037114;27;94656;-39
2023/10/27 06:59:32;;;;;;;;;;;18.00;78.80;;;;;;5032419;27;90726;-36
2023/10/27 07:01:58;;;;;;;;;;;18.00;79.20;;;;;;5030671;27;88813;-36
2023/10/27 07:04:23;;;;;;;;;;;18.00;79.20;;;;;;5036861;27;90083;-36
2023/10/27 07:06:49;;;;;;;;;;;18.00;79.40;;;;;;5028762;27;89880;-37
2023/10/27 07:09:15;;;;;;;;;;;18.00;79.30;;;;;;5034806;27;91139;-37
2023/10/27 07:11:40;;;;;;;;;;;18.10;79.00;;;;;;5039598;27;91972;-36
2023/10/27 07:14:06;;;;;;;;;;;18.10;79.00;;;;;;5035182;27;90069;-37
2023/10/27 07:16:31;;;;;;;;;;;18.10;78.90;;;;;;5039742;27;89564;-36
2023/10/27 07:18:57;;;;;;;;;;;18.10;79.20;;;;;;5037493;27;90090;-38
2023/10/27 07:21:22;;;;;;;;;;;18.10;78.70;;;;;;5038753;27;89881;-36
2023/10/27 07:23:47;;;;;;;;;;;18.10;78.70;;;;;;5034261;27;89863;-38
2023/10/27 07:26:14;;;;;;;;;;;18.10;78.50;;;;;;5036199;27;88651;-37
2023/10/27 07:28:40;;;;;;;;;;;18.10;78.40;;;;;;5035295;27;89035;-45
2023/10/27 07:31:06;;;;;;;;;;;18.10;78.10;;;;;;5036720;27;89608;-45
2023/10/27 07:33:32;;;;;;;;;;;18.10;78.20;;;;;;5038035;27;90353;-46
2023/10/27 07:35:58;;;;;;;;;;;18.10;78.30;;;;;;5036951;27;89490;-45
2023/10/27 07:38:26;;;;;;;;;;;18.10;78.30;;;;;;5032331;27;92269;-45
2023/10/27 07:40:55;;;;;;;;;;;18.10;78.40;;;;;;5031392;27;89383;-46
2023/10/27 07:43:21;;;;;;;;;;;18.10;78.40;;;;;;5031590;27;94488;-45
2023/10/27 07:45:47;;;;;;;;;;;18.10;78.50;;;;;;5040204;27;90502;-46
2023/10/27 07:48:12;;;;;;;;;;;18.10;78.60;;;;;;5038010;27;90906;-46
2023/10/27 07:50:40;;;;;;;;;;;18.10;78.90;;;;;;5036179;27;90760;-45
2023/10/27 07:53:05;;;;;;;;;;;18.10;79.60;;;;;;5030439;27;90088;-44
2023/10/27 07:55:31;;;;;;;;;;;18.10;80.10;;;;;;5031337;27;90057;-46
2023/10/27 07:57:56;;;;;;;;;;;18.10;80.60;;;;;;5027625;27;90920;-46
2023/10/27 08:00:22;;;;;;;;;;;18.10;81.10;;;;;;5037610;27;90451;-44
2023/10/27 08:02:49;;;;;;;;;;;18.10;81.70;;;;;;5039400;27;89291;-45
2023/10/27 08:05:14;;;;;;;;;;;18.10;82.10;;;;;;5039065;27;94130;-44
2023/10/27 08:07:40;;;;;;;;;;;18.10;82.70;;;;;;5029273;27;90577;-44
2023/10/27 08:10:07;;;;;;;;;;;18.10;82.70;;;;;;5042801;27;90337;-44
2023/10/27 08:12:32;;;;;;;;;;;18.20;82.40;;;;;;5037852;27;90247;-46
2023/10/27 08:14:58;;;;;;;;;;;18.20;83.50;;;;;;5035251;27;88926;-45
2023/10/27 08:17:23;;;;;;;;;;;18.10;83.40;;;;;;5041882;27;89663;-45
2023/10/27 08:19:49;;;;;;;;;;;18.20;83.50;;;;;;5029887;27;90113;-45
2023/10/27 08:22:14;;;;;;;;;;;18.10;82.90;;;;;;5024393;27;91001;-46
2023/10/27 08:24:40;;;;;;;;;;;18.10;79.30;;;;;;5038337;27;89912;-45
2023/10/27 08:27:05;;;;;;;;;;;18.10;81.00;;;;;;5032663;27;89456;-45
2023/10/27 08:29:31;;;;;;;;;;;18.10;81.70;;;;;;5029186;27;90218;-45
2023/10/27 08:31:56;;;;;;;;;;;18.10;81.70;;;;;;5040645;27;89629;-45
2023/10/27 08:34:22;;;;;;;;;;;18.10;82.00;;;;;;5036578;27;89237;-45
2023/10/27 08:36:47;;;;;;;;;;;18.20;82.40;;;;;;5034402;27;93482;-46
2023/10/27 08:39:13;;;;;;;;;;;18.20;82.00;;;;;;5038604;27;91289;-45
2023/10/27 08:41:40;;;;;;;;;;;18.10;81.70;;;;;;5032163;27;90175;-45
2023/10/27 08:44:06;;;;;;;;;;;18.10;81.80;;;;;;5034155;27;89426;-44
2023/10/27 08:46:32;;;;;;;;;;;18.20;82.10;;;;;;5032195;27;91086;-46
2023/10/27 08:48:57;;;;;;;;;;;18.20;82.30;;;;;;5035271;27;89541;-45
2023/10/27 08:51:23;;;;;;;;;;;18.10;82.60;;;;;;5047318;27;89530;-46
2023/10/27 08:53:49;;;;;;;;;;;18.10;82.60;;;;;;5042013;27;90782;-44
2023/10/27 08:56:14;;;;;;;;;;;18.10;82.90;;;;;;5036910;27;88971;-45
2023/10/27 08:58:47;;;;;;;;;;;18.10;82.90;;;;;;5034914;27;89393;-45
2023/10/27 09:01:13;;;;;;;;;;;18.10;83.00;;;;;;5038111;27;89485;-45
2023/10/27 09:03:39;;;;;;;;;;;18.20;83.00;;;;;;5044327;27;90690;-45
2023/10/27 09:06:04;;;;;;;;;;;18.20;82.60;;;;;;5029088;27;90105;-46
2023/10/27 09:08:30;;;;;;;;;;;18.20;82.70;;;;;;5029813;27;90282;-49
2023/10/27 09:10:56;;;;;;;;;;;18.10;82.50;;;;;;5034828;27;91790;-48
2023/10/27 09:13:22;;;;;;;;;;;18.20;82.60;;;;;;5036081;27;95706;-46
2023/10/27 09:15:50;;;;;;;;;;;18.20;83.20;;;;;;5034395;27;90333;-46
2023/10/27 09:18:16;;;;;;;;;;;18.30;83.70;;;;;;5036825;27;89624;-45
2023/10/27 09:20:52;;;;;;;;;;;18.30;83.90;;;;;;5038720;27;89590;-46
2023/10/27 09:23:19;;;;;;;;;;;18.40;84.00;;;;;;5036678;27;89611;-45
2023/10/27 09:25:45;;;;;;;;;;;18.40;83.90;;;;;;5042203;27;89917;-46
2023/10/27 09:28:11;;;;;;;;;;;18.50;84.10;;;;;;5037272;27;88402;-45
2023/10/27 09:30:37;;;;;;;;;;;18.50;84.30;;;;;;5037321;27;90159;-46
2023/10/27 09:33:15;;;;;;;;;;;18.50;84.50;;;;;;5039349;27;89963;-46
2023/10/27 09:35:41;;;;;;;;;;;18.60;84.60;;;;;;5035144;27;91403;-46
2023/10/27 09:38:08;;;;;;;;;;;18.60;84.70;;;;;;5036840;27;89320;-45
2023/10/27 09:40:35;;;;;;;;;;;18.50;84.70;;;;;;5041230;27;89737;-47
2023/10/27 09:43:02;;;;;;;;;;;18.60;85.20;;;;;;5041431;27;88931;-47
2023/10/27 09:45:29;;;;;;;;;;;18.60;84.20;;;;;;5030992;27;90294;-48
2023/10/27 09:48:02;;;;;;;;;;;18.50;83.20;;;;;;5014680;27;89800;-48
2023/10/27 09:50:29;;;;;;;;;;;18.50;82.90;;;;;;5033823;27;89268;-47
2023/10/27 09:52:59;;;;;;;;;;;18.50;82.60;;;;;;5032229;27;90005;-47
2023/10/27 09:55:26;;;;;;;;;;;18.50;82.60;;;;;;5035531;27;91570;-47
2023/10/27 09:57:52;;;;;;;;;;;18.50;82.80;;;;;;5033400;27;89644;-47
2023/10/27 10:00:22;;;;;;;;;;;18.40;82.50;;;;;;5032637;27;90413;-47
2023/10/27 10:02:48;;;;;;;;;;;18.40;82.50;;;;;;5037091;27;90077;-47
2023/10/27 10:05:13;;;;;;;;;;;18.50;82.30;;;;;;5033320;27;89406;-48
2023/10/27 10:07:44;;;;;;;;;;;18.50;82.20;;;;;;5029704;27;90100;-47
2023/10/27 10:10:33;;;;;;;;;;;18.50;82.50;;;;;;5036704;27;89472;-39
2023/10/27 10:13:03;;;;;;;;;;;18.60;82.50;;;;;;5017876;27;89981;-40
2023/10/27 10:15:31;;;;;;;;;;;18.60;82.10;;;;;;5033007;27;89948;-40
2023/10/27 10:17:57;;;;;;;;;;;18.60;81.80;;;;;;5036242;27;89465;-38
2023/10/27 10:20:41;;;;;;;;;;;18.60;81.60;;;;;;5041259;27;89833;-38
2023/10/27 10:23:13;;;;;;;;;;;18.50;80.10;;;;;;5043088;27;89583;-37
2023/10/27 10:25:51;;;;;;;;;;;18.30;79.40;;;;;;5035297;27;91079;-37
2023/10/27 10:28:16;;;;;;;;;;;18.00;80.10;;;;;;5044441;27;90479;-38
2023/10/27 10:30:42;;;;;;;;;;;18.10;79.30;;;;;;5053137;27;90114;-38
2023/10/27 10:33:14;;;;;;;;;;;18.00;77.50;;;;;;5034975;27;89998;-35
2023/10/27 10:35:43;;;;;;;;;;;18.00;78.30;;;;;;5040453;27;90330;-36
2023/10/27 10:38:26;;;;;;;;;;;17.80;76.90;;;;;;5040642;27;89970;-35
2023/10/27 10:40:53;;;;;;;;;;;17.90;76.80;;;;;;5038371;27;89455;-35
2023/10/27 10:43:20;;;;;;;;;;;17.90;76.00;;;;;;5042885;27;89958;-35
2023/10/27 10:45:46;;;;;;;;;;;17.70;75.30;;;;;;5048152;27;90267;-35
2023/10/27 10:48:12;;;;;;;;;;;17.90;75.80;;;;;;5046564;27;89819;-35
2023/10/27 10:50:37;;;;;;;;;;;17.90;75.70;;;;;;5042476;27;90877;-36
2023/10/27 10:53:10;;;;;;;;;;;17.90;75.90;;;;;;5034679;27;90191;-35
2023/10/27 10:55:36;;;;;;;;;;;17.90;76.50;;;;;;5039926;27;89927;-37
2023/10/27 10:58:01;;;;;;;;;;;18.00;77.00;;;;;;5036965;27;90127;-34
2023/10/27 11:00:36;;;;;;;;;;;18.10;77.20;;;;;;5046331;27;89479;-34
2023/10/27 11:03:08;;;;;;;;;;;18.10;76.80;;;;;;5041896;27;91070;-33
2023/10/27 11:05:34;;;;;;;;;;;18.10;76.70;;;;;;5039691;27;91370;-34
2023/10/27 11:08:00;;;;;;;;;;;18.10;76.60;;;;;;5034253;27;89063;-35
2023/10/27 11:10:26;;;;;;;;;;;18.10;75.60;;;;;;5045627;27;89435;-35
2023/10/27 11:12:51;;;;;;;;;;;18.10;75.20;;;;;;5047949;27;90372;-35
2023/10/27 11:15:36;;;;;;;;;;;18.10;75.50;;;;;;5036142;27;90452;-35
2023/10/27 11:18:05;;;;;;;;;;;18.10;75.70;;;;;;5035557;27;90692;-35
2023/10/27 11:20:37;;;;;;;;;;;18.10;76.20;;;;;;5032950;27;91041;-34
2023/10/27 11:23:09;;;;;;;;;;;18.10;76.80;;;;;;5041356;27;91226;-35
2023/10/27 11:25:35;;;;;;;;;;;18.10;77.70;;;;;;5042697;27;89689;-37
2023/10/27 11:28:19;;;;;;;;;;;18.10;77.80;;;;;;5036872;27;89882;-37
2023/10/27 11:31:07;;;;;;;;;;;18.20;77.30;;;;;;5041805;27;90485;-36
2023/10/27 11:33:35;;;;;;;;;;;18.20;76.80;;;;;;5040002;27;89954;-37
2023/10/27 11:36:00;;;;;;;;;;;18.20;76.20;;;;;;5041826;27;89524;-35
2023/10/27 11:38:32;;;;;;;;;;;18.20;77.00;;;;;;5045695;27;89535;-36
2023/10/27 11:41:11;;;;;;;;;;;18.30;76.40;;;;;;5041328;27;92800;-36
2023/10/27 11:43:37;;;;;;;;;;;18.30;76.20;;;;;;5039198;27;89921;-35
2023/10/27 11:46:12;;;;;;;;;;;18.30;75.90;;;;;;5035133;27;90926;-36
2023/10/27 11:48:38;;;;;;;;;;;18.30;75.90;;;;;;5038044;27;96016;-36
2023/10/27 11:51:03;;;;;;;;;;;18.30;76.30;;;;;;5037431;27;89862;-36
2023/10/27 11:53:29;;;;;;;;;;;18.40;79.00;;;;;;5036367;27;89608;-36
2023/10/27 11:55:54;;;;;;;;;;;18.40;79.90;;;;;;5031460;27;93891;-36
2023/10/27 11:58:20;;;;;;;;;;;18.40;77.60;;;;;;5031843;27;90283;-36
2023/10/27 12:00:45;;;;;;;;;;;18.40;77.90;;;;;;5036751;27;90083;-36
2023/10/27 12:03:11;;;;;;;;;;;18.40;77.90;;;;;;5034259;27;90307;-36
2023/10/27 12:05:36;;;;;;;;;;;18.40;76.20;;;;;;5029545;27;90620;-36
2023/10/27 12:08:02;;;;;;;;;;;18.40;75.50;;;;;;5037814;27;89920;-38
2023/10/27 12:10:27;;;;;;;;;;;18.40;75.60;;;;;;5044209;27;90163;-38
2023/10/27 12:12:53;;;;;;;;;;;18.40;75.00;;;;;;5020874;27;92291;-35
2023/10/27 12:15:18;;;;;;;;;;;18.30;73.60;;;;;;5030634;27;89592;-36
2023/10/27 12:17:46;;;;;;;;;;;18.40;75.60;;;;;;5037420;27;89511;-36
2023/10/27 12:20:12;;;;;;;;;;;18.40;74.10;;;;;;5033353;27;90021;-37
2023/10/27 12:22:42;;;;;;;;;;;18.40;73.70;;;;;;5029570;27;89370;-37
2023/10/27 12:25:08;;;;;;;;;;;18.40;72.60;;;;;;5042302;27;89602;-37
2023/10/27 12:27:33;;;;;;;;;;;18.40;73.00;;;;;;5036675;27;89528;-38
2023/10/27 12:29:59;;;;;;;;;;;18.30;72.30;;;;;;5032777;27;90640;-36
2023/10/27 12:32:24;;;;;;;;;;;18.30;72.30;;;;;;5028935;27;90167;-35
2023/10/27 12:34:50;;;;;;;;;;;18.30;73.20;;;;;;5034797;27;89480;-35
2023/10/27 12:37:16;;;;;;;;;;;18.30;71.60;;;;;;5024654;27;89405;-35
2023/10/27 12:39:42;;;;;;;;;;;18.30;72.60;;;;;;5043902;27;89416;-35
2023/10/27 12:42:08;;;;;;;;;;;18.30;72.40;;;;;;5040319;27;89486;-35
2023/10/27 12:44:34;;;;;;;;;;;18.30;72.00;;;;;;5041359;27;90072;-44
2023/10/27 12:46:59;;;;;;;;;;;18.30;72.00;;;;;;5041289;27;89561;-45
2023/10/27 12:49:25;;;;;;;;;;;18.20;72.00;;;;;;5045494;27;89695;-44
2023/10/27 12:51:50;;;;;;;;;;;18.20;71.60;;;;;;5045534;27;89954;-44
2023/10/27 12:54:17;;;;;;;;;;;18.20;72.20;;;;;;5042019;27;90714;-45
2023/10/27 12:56:42;;;;;;;;;;;18.30;71.00;;;;;;5040574;27;90541;-44
2023/10/27 12:59:09;;;;;;;;;;;18.20;71.50;;;;;;5043599;27;89399;-44
2023/10/27 13:01:35;;;;;;;;;;;18.20;72.00;;;;;;5046371;27;89453;-45
2023/10/27 13:04:01;;;;;;;;;;;18.20;72.50;;;;;;5040344;27;90843;-46
2023/10/27 13:06:26;;;;;;;;;;;18.50;72.70;;;;;;5040533;27;89592;-47
2023/10/27 13:08:53;;;;;;;;;;;18.60;72.60;;;;;;5043866;27;91488;-48
2023/10/27 13:11:18;;;;;;;;;;;18.70;72.50;;;;;;5043414;27;88102;-48
2023/10/27 13:13:44;;;;;;;;;;;18.80;72.50;;;;;;5047034;27;90177;-48
2023/10/27 13:16:13;;;;;;;;;;;18.80;72.60;;;;;;5047128;27;94755;-48
2023/10/27 13:18:38;;;;;;;;;;;18.80;72.80;;;;;;5044679;27;90426;-47
2023/10/27 13:21:12;;;;;;;;;;;18.90;73.00;;;;;;5040765;27;89534;-48
2023/10/27 13:23:37;;;;;;;;;;;18.90;73.20;;;;;;5043335;27;89401;-48
2023/10/27 13:26:03;;;;;;;;;;;18.90;73.20;;;;;;5036470;27;91728;-48
2023/10/27 13:28:28;;;;;;;;;;;18.90;73.40;;;;;;5038868;27;91211;-48
2023/10/27 13:30:54;;;;;;;;;;;18.90;73.40;;;;;;5038643;27;90060;-48
2023/10/27 13:33:20;;;;;;;;;;;19.00;73.60;;;;;;5036168;27;89406;-48
2023/10/27 13:35:46;;;;;;;;;;;18.90;73.90;;;;;;5037241;27;89027;-47
2023/10/27 13:38:11;;;;;;;;;;;19.00;74.10;;;;;;5032928;27;94558;-48
2023/10/27 13:40:39;;;;;;;;;;;19.00;74.20;;;;;;5038585;27;89929;-46
2023/10/27 13:43:04;;;;;;;;;;;19.00;74.40;;;;;;5026911;27;91406;-45
2023/10/27 13:45:30;;;;;;;;;;;19.00;74.50;;;;;;5037039;27;89953;-45
2023/10/27 13:47:55;;;;;;;;;;;19.00;74.30;;;;;;5038308;27;90331;-45
2023/10/27 13:50:21;;;;;;;;;;;19.00;74.40;;;;;;5040246;27;90125;-45
2023/10/27 13:52:47;;;;;;;;;;;19.10;74.50;;;;;;5039943;27;91365;-45
2023/10/27 13:55:12;;;;;;;;;;;19.10;74.70;;;;;;5039039;27;89554;-45
2023/10/27 13:57:38;;;;;;;;;;;19.10;74.60;;;;;;5031405;27;89529;-46
2023/10/27 14:00:09;;;;;;;;;;;19.10;74.50;;;;;;5036246;27;88852;-45
2023/10/27 14:02:35;;;;;;;;;;;19.20;74.90;;;;;;5032202;27;90598;-45
2023/10/27 14:05:00;;;;;;;;;;;19.20;74.90;;;;;;5013229;27;91393;-45
2023/10/27 14:07:26;;;;;;;;;;;19.20;75.10;;;;;;5034963;27;90998;-46
2023/10/27 14:09:52;;;;;;;;;;;19.20;75.40;;;;;;5037724;27;89397;-45
2023/10/27 14:12:17;;;;;;;;;;;19.20;75.60;;;;;;5034860;27;90087;-45